Aktualne dane pomiarowe

Uwaga, wersja testowa! Automatyczne pobieranie danych za pomocą narzędzi lub skryptów to umożliwiających jest zabronione.

Dane meteo z obszaru Polski uzyskane na podstawie depesz SYNOP pobieranych co godzinę z NWS. Najedź myszką na symbol przedstawiony w tabeli, aby uzyskać informacje co do jego znaczenia. Prosimy pamiętać, że to testowa wersja strony, która jeszcze nie jest ukończona. Stworzono również jest krótki FAQ dotyczący korzystania z tej podstrony Anomalie temperatury w chwili obecnej odniesione są do okresu referencyjnego 1951-2016. Okres ten będzie później zmieniony na 1981-2010. Kliknij ikonę aby pobrać plik CSV. Kliknij ikonę aby wygenerować mapę synoptyczną dla danego terminu.

Wybierz Datę:    

        

Białystok (12295)

Dane terminowe dla wybranej stacji. Kliknij datę, aby otrzymać dane z tego terminu dla wszystkich stacji.

TemperaturaZachmurzenieWiatrCiśnienieOpadyPogoda
 Data t td wb tx tn tg rh  Nt Nl Cl Cm Ch ws wd g1 g2 wx mslp ppp ch 24h 12h t ww ww w1 w2  
2019-07-12 23:00:00 9.3 9.0 9.0--- 9811.0wx-wx0---01010.3 991.9 -0.2---wx---
2019-07-12 22:00:00 9.9 9.3 9.4--- 9611.0wx-wx0----1010.3 991.9 0.0---------
2019-07-12 21:00:00 10.7 9.5 9.8--- 9230.0wx-wx0---01010.2 991.9 0.5---------
2019-07-12 20:00:00 12.0 9.9 10.6--- 8724.0wx-wx0---01010.3 992.1 0.9---------
2019-07-12 19:00:00 14.1 9.5 11.2--- 7445.0wx-wx1wx--11010.0 991.9 0.8---------
2019-07-12 18:00:00 18.2 9.3 12.9 21.8 14.7- 5650.0wxwxwxwx2wx-921009.2 991.4 0.2- 0.012------
2019-07-12 17:00:00 20.7 7.0 13.0--- 4145.0wxwxwxwx2wx--21008.9 991.2 -0.3---------
2019-07-12 16:00:00 21.2 7.4 13.4--- 4135.0wxwxwxwx2wx--21008.7 991.1 -0.6---------
2019-07-12 15:00:00 21.4 6.9 13.3--- 3930.0wxwxwxwx2wx-921008.8 991.2 -0.7---------
2019-07-12 14:00:00 21.3 7.1 13.4--- 4035.0wxwxwxwx3wx-931009.1 991.5 -0.7---------
2019-07-12 13:00:00 21.0 7.9 13.6--- 4327.0wxwxwxwx4wx--41009.4 991.7 -0.3---------
2019-07-12 12:00:00 20.3 8.6 13.5--- 4730.0wxwxwxwx3wx--31009.6 991.9 0.0- 0.06------
2019-07-12 11:00:00 19.6 8.6 13.2--- 4930.0wx-3wx--31010.0 992.2 0.5---------
2019-07-12 10:00:00 19.0 9.2 13.2--- 5335.0wxwxwxwx2wx--21009.8 992.0 0.4---------
2019-07-12 09:00:00 18.6 9.9 13.4--- 5740.0wxwxwxwx4wx--41009.7 991.9 0.3---------
2019-07-12 08:00:00 17.7 11.7 13.9--- 6835.0wxwxwxwx3wx--31009.6 991.7 0.1---------
2019-07-12 07:00:00 15.9 11.7 13.2--- 7629.0wxwxwxwx4wx--41009.6 991.6 0.2---------
2019-07-12 06:00:00 14.8 11.0 12.3 17.4 11.7 10 7835.0wxwxwx3wx-731009.6 991.6 0.5--12wx-w1- 2.6
2019-07-12 05:00:00 14.3 10.7 11.9--- 7945.0wxwxwxwx3wx---1009.7 991.6 0.4---------
2019-07-12 04:00:00 13.3 9.9 11.1--- 8040.0wxwxwx2wx--21009.5 991.4 -0.2---------
2019-07-12 03:00:00 12.8 10.0 10.9--- 8350.0wxwxwx2wx--21009.3 991.1 -0.8---wx---
2019-07-12 02:00:00 13.2 9.8 11.0--- 8050.0wxwxwx2wx--21009.3 991.2 -0.9---------
2019-07-12 01:00:00 13.4 10.0 11.2--- 8050.0wxwxwx2wx--21009.7 991.6 -0.5---------
2019-07-12 00:00:00 13.3 10.7 11.6--- 8450.0wxwxwxwxwx2wx--21010.0 991.9 -0.2- 0.06------
2019-07-11 23:00:00 11.8 11.2 11.3--- 9618.0wx-wxwx2wx--21010.3 992.1 0.2---------
2019-07-11 22:00:00 12.0 11.2 11.4--- 9522.0wx-wxwx1wx--11010.3 992.1 0.2---------
2019-07-11 21:00:00 13.7 11.7 12.3--- 8850.0wx-wxwx1wx--11010.2 992.1 0.4---------
2019-07-11 20:00:00 13.3 12.0 12.4--- 9227.0wx-wx1wx--11010.0 991.9 0.3---------
2019-07-11 19:00:00 14.2 11.5 12.4--- 8450.0wx-wxwx1wx--11010.0 991.9 0.3---------
2019-07-11 18:00:00 17.4 10.5 13.1 19.1 14.1- 6450.0wx-wx2wx-821009.6 991.7 0.0- 0.012------
2019-07-11 17:00:00 18.1 9.2 12.8--- 5650.0wx-wx2wx--21009.4 991.6 0.1---------
2019-07-11 16:00:00 18.4 9.5 13.1--- 5650.0wxwxwxwx3wx--31009.4 991.6 0.1---------
2019-07-11 15:00:00 18.4 9.2 13.0--- 5545.0wxwxwxwx3wx-831009.5 991.7 0.0---------
2019-07-11 14:00:00 18.4 10.7 13.7--- 6140.0wxwxwxwx3wx--31009.3 991.5 -0.1---------
2019-07-11 13:00:00 18.0 12.0 14.2--- 6830.0wxwxwxwx3wx--31009.3 991.5 -0.3---------
2019-07-11 12:00:00 17.1 11.4 13.5--- 6935.0wxwxwxwx2wx--21009.6 991.7 -0.3- 0.06------
2019-07-11 11:00:00 17.9 10.5 13.4--- 6230.0wxwxwxwx3wx--31009.5 991.6 -0.1---------
2019-07-11 10:00:00 17.7 11.0 13.5--- 6535.0wxwxwxwx3wx--31009.7 991.8 0.4---------
2019-07-11 09:00:00 16.5 11.4 13.2--- 7230.0wxwxwxwx3wx--31009.9 992.0 0.7---------
2019-07-11 08:00:00 15.4 11.4 12.8--- 7740.0wxwxwx2wx--21009.7 991.7 0.7---------
2019-07-11 07:00:00 15.4 11.8 13.0--- 7940.0wxwxwxwx2wx---1009.4 991.4 0.4---------
2019-07-11 06:00:00 14.1 12.1 12.7 14.5 12.3 11 8830.0wxwxwx2wx--21009.4 991.3 0.5 0.8-12wx-w1- 4.6
2019-07-11 05:00:00 13.0 11.7 12.1--- 9221.0wxwxwx2wx--21009.1 991.0 0.2---------
2019-07-11 04:00:00 12.6 11.7 11.9--- 9419.0wxwxwx2wx--21009.2 991.0 0.2---------
2019-07-11 03:00:00 12.4 11.6 11.8--- 9517.0wxwxwx2wx--21009.0 990.8 -0.1---wx-w1--
2019-07-11 02:00:00 12.3 11.5 11.7--- 9518.0wxwxwx2wx--21009.0 990.8 -0.2---wx-w1--
2019-07-11 01:00:00 12.4 11.3 11.6--- 9326.0wxwxwx2wx--21009.0 990.8 -0.4---------
2019-07-11 00:00:00 12.3 11.0 11.4--- 9224.0wxwxwx2wx--21009.1 990.9 -0.2--6wx-w1--
1.1 ms

 

Print Friendly, PDF & Email